MBE NZWL-NZWL
Flight info
| Callsign | MBE |
|---|---|
| Flight time | 0h 11m |
| Altitude | 3500 |
| Route | NZCH |
| Aircraft | PA24/L-SDGRY/S |
Departure
| Time | 2026-04-18 04:23 |
|---|---|
| Airport | West Melton Aerodrome (NZWL) |
Arrival
| Time | 2026-04-18 04:34 |
|---|---|
| Airport | West Melton Aerodrome (NZWL) |
| Time | Latitude | Longitude | Altitude | Speed | Heading |
|---|---|---|---|---|---|
| 2026-04-18 04:20 | -43.47779 | 172.38801 | 295 ft | 0 kts | 97° |
| 2026-04-18 04:21 | -43.47792 | 172.38810 | 297 ft | 6 kts | 190° |
| 2026-04-18 04:21 | -43.47832 | 172.38798 | 293 ft | 7 kts | 195° |
| 2026-04-18 04:22 | -43.47879 | 172.38766 | 300 ft | 9 kts | 156° |
| 2026-04-18 04:22 | -43.47833 | 172.38961 | 297 ft | 48 kts | 66° |
| 2026-04-18 04:22 | -43.47648 | 172.39572 | 348 ft | 82 kts | 61° |
| 2026-04-18 04:22 | -43.47402 | 172.40291 | 582 ft | 83 kts | 59° |
| 2026-04-18 04:23 | -43.47152 | 172.41018 | 827 ft | 87 kts | 54° |
| 2026-04-18 04:23 | -43.46742 | 172.41552 | 987 ft | 86 kts | 358° |
| 2026-04-18 04:23 | -43.46375 | 172.40962 | 1149 ft | 93 kts | 280° |
| 2026-04-18 04:23 | -43.46530 | 172.40081 | 1156 ft | 93 kts | 256° |
| 2026-04-18 04:24 | -43.46774 | 172.39270 | 1139 ft | 91 kts | 253° |
| 2026-04-18 04:24 | -43.47036 | 172.38501 | 1130 ft | 89 kts | 249° |
| 2026-04-18 04:24 | -43.47322 | 172.37762 | 1051 ft | 82 kts | 247° |
| 2026-04-18 04:24 | -43.47599 | 172.37104 | 938 ft | 80 kts | 244° |
| 2026-04-18 04:25 | -43.48034 | 172.36789 | 757 ft | 81 kts | 163° |
| 2026-04-18 04:25 | -43.48280 | 172.37423 | 670 ft | 80 kts | 76° |
| 2026-04-18 04:25 | -43.48101 | 172.38084 | 481 ft | 69 kts | 60° |
| 2026-04-18 04:25 | -43.47918 | 172.38688 | 335 ft | 70 kts | 60° |
| 2026-04-18 04:26 | -43.47749 | 172.39238 | 287 ft | 54 kts | 68° |
| 2026-04-18 04:26 | -43.47567 | 172.39835 | 349 ft | 80 kts | 62° |
| 2026-04-18 04:26 | -43.47346 | 172.40521 | 587 ft | 76 kts | 59° |
| 2026-04-18 04:26 | -43.47102 | 172.41184 | 871 ft | 79 kts | 58° |
| 2026-04-18 04:27 | -43.46852 | 172.41922 | 985 ft | 86 kts | 54° |
| 2026-04-18 04:27 | -43.46813 | 172.42725 | 1014 ft | 102 kts | 126° |
| 2026-04-18 04:27 | -43.47405 | 172.42597 | 990 ft | 94 kts | 250° |
| 2026-04-18 04:27 | -43.47286 | 172.41821 | 954 ft | 86 kts | 323° |
| 2026-04-18 04:28 | -43.46749 | 172.41970 | 939 ft | 96 kts | 50° |
| 2026-04-18 04:28 | -43.46996 | 172.42812 | 954 ft | 115 kts | 156° |
| 2026-04-18 04:28 | -43.47676 | 172.42501 | 1050 ft | 105 kts | 237° |
| 2026-04-18 04:28 | -43.47663 | 172.41703 | 1037 ft | 88 kts | 325° |
| 2026-04-18 04:29 | -43.47184 | 172.42108 | 1030 ft | 106 kts | 70° |
| 2026-04-18 04:29 | -43.47458 | 172.43024 | 1070 ft | 111 kts | 136° |
| 2026-04-18 04:29 | -43.48168 | 172.43055 | 1057 ft | 105 kts | 223° |
| 2026-04-18 04:29 | -43.48219 | 172.42301 | 1053 ft | 82 kts | 322° |
| 2026-04-18 04:30 | -43.47727 | 172.42480 | 1066 ft | 92 kts | 54° |
| 2026-04-18 04:30 | -43.47661 | 172.43407 | 1068 ft | 100 kts | 76° |
| 2026-04-18 04:30 | -43.47537 | 172.44338 | 1052 ft | 98 kts | 71° |
| 2026-04-18 04:30 | -43.47397 | 172.45261 | 1042 ft | 98 kts | 70° |
| 2026-04-18 04:31 | -43.47255 | 172.46162 | 1042 ft | 98 kts | 70° |
| 2026-04-18 04:31 | -43.47113 | 172.47071 | 1017 ft | 96 kts | 69° |
| 2026-04-18 04:31 | -43.46966 | 172.47965 | 1015 ft | 95 kts | 70° |
| 2026-04-18 04:31 | -43.46826 | 172.48847 | 1020 ft | 94 kts | 69° |
| 2026-04-18 04:32 | -43.46678 | 172.49732 | 1052 ft | 94 kts | 67° |
| 2026-04-18 04:32 | -43.46538 | 172.50608 | 1092 ft | 94 kts | 68° |
| 2026-04-18 04:32 | -43.46398 | 172.51472 | 981 ft | 91 kts | 71° |
| 2026-04-18 04:32 | -43.46261 | 172.52295 | 859 ft | 86 kts | 69° |
| 2026-04-18 04:33 | -43.46124 | 172.53081 | 678 ft | 84 kts | 67° |
| 2026-04-18 04:33 | -43.46244 | 172.53887 | 617 ft | 96 kts | 124° |
| 2026-04-18 04:33 | -43.46679 | 172.54565 | 473 ft | 87 kts | 133° |
| 2026-04-18 04:33 | -43.47210 | 172.54655 | 401 ft | 81 kts | 220° |
| 2026-04-18 04:34 | -43.47638 | 172.54194 | 307 ft | 72 kts | 226° |
| 2026-04-18 04:34 | -43.48027 | 172.53747 | 197 ft | 74 kts | 226° |
| 2026-04-18 04:34 | -43.48403 | 172.53309 | 116 ft | 60 kts | 219° |
| 2026-04-18 04:34 | -43.48611 | 172.53051 | 114 ft | 8 kts | 259° |
| 2026-04-18 04:35 | -43.48577 | 172.53003 | 114 ft | 8 kts | 315° |
| 2026-04-18 04:35 | -43.48535 | 172.52938 | 115 ft | 7 kts | 352° |
| 2026-04-18 04:35 | -43.48478 | 172.52998 | 115 ft | 13 kts | 41° |
| 2026-04-18 04:35 | -43.48411 | 172.53075 | 115 ft | 12 kts | 40° |
| 2026-04-18 04:36 | -43.48363 | 172.53094 | 115 ft | 7 kts | 310° |
| 2026-04-18 04:36 | -43.48351 | 172.53065 | 115 ft | 0 kts | 308° |